Time;durP1;ratioP1;P1;durP2;ratioP2;P2;SDS_P1;SDS_P2;PMS_P1;PMS_P2;Temp;Humidity;BMP_temperature;BMP_pressure;BME280_temperature;BME280_humidity;BME280_pressure;Samples;Min_cycle;Max_cycle;Signal;HPM_P1;HPM_P2
2022/01/24 00:01:41;;;;;;;35.37;14.03;;;-3.40;99.90;;;;;;4421429;32;20230;-68
2022/01/24 00:04:14;;;;;;;30.93;13.40;;;-3.30;99.90;;;;;;4421761;32;20477;-67
2022/01/24 00:06:51;;;;;;;31.67;13.00;;;-3.30;99.90;;;;;;4420968;32;20250;-67
2022/01/24 00:09:28;;;;;;;31.70;13.80;;;-3.40;99.90;;;;;;4416416;32;20184;-67
2022/01/24 00:14:51;;;;;;;38.07;16.70;;;-3.20;99.90;;;;;;4422657;32;20202;-67
2022/01/24 00:17:18;;;;;;;49.87;19.90;;;-3.30;99.90;;;;;;4424637;32;20529;-67
2022/01/24 00:28:20;;;;;;;70.77;28.30;;;-3.50;99.90;;;;;;4424936;32;20450;-67
2022/01/24 00:30:51;;;;;;;74.70;29.37;;;-3.50;99.90;;;;;;4424882;32;20163;-68
2022/01/24 00:33:21;;;;;;;72.90;29.27;;;-3.60;99.90;;;;;;4424452;32;20182;-68
2022/01/24 00:35:50;;;;;;;77.17;30.50;;;-3.60;99.90;;;;;;4424722;32;20175;-67
2022/01/24 00:38:18;;;;;;;79.33;30.93;;;-3.60;99.90;;;;;;4426197;32;20175;-67
2022/01/24 00:40:48;;;;;;;75.53;31.10;;;-3.60;99.90;;;;;;4425860;32;20196;-67
2022/01/24 00:46:09;;;;;;;75.17;29.73;;;-3.60;99.90;;;;;;4424352;32;20179;-68
2022/01/24 00:49:12;;;;;;;78.83;30.10;;;-3.60;99.90;;;;;;4424075;32;20209;-67
2022/01/24 00:57:03;;;;;;;81.03;30.53;;;-3.50;99.90;;;;;;4424300;32;20198;-68
2022/01/24 00:59:32;;;;;;;79.60;31.27;;;-3.50;99.90;;;;;;4423746;32;20187;-67
2022/01/24 01:02:00;;;;;;;78.47;31.10;;;-3.40;99.90;;;;;;4424188;32;20347;-67
2022/01/24 01:04:38;;;;;;;70.07;30.20;;;-3.40;99.90;;;;;;4424168;32;20171;-68
2022/01/24 01:07:07;;;;;;;71.83;30.50;;;-3.40;99.90;;;;;;4425351;32;20159;-67
2022/01/24 01:18:14;;;;;;;86.67;33.03;;;-3.30;99.90;;;;;;4424145;32;20175;-67
2022/01/24 01:23:17;;;;;;;87.03;31.77;;;-3.20;99.90;;;;;;4425097;32;20179;-68
2022/01/24 01:25:46;;;;;;;83.33;33.60;;;-3.20;99.90;;;;;;4423645;32;20193;-67
2022/01/24 01:28:18;;;;;;;87.80;33.67;;;-3.10;99.90;;;;;;4412222;32;20187;-67
2022/01/24 01:30:52;;;;;;;81.40;32.30;;;-3.10;99.90;;;;;;4425152;32;20185;-67
2022/01/24 01:56:18;;;;;;;89.33;32.90;;;-2.90;99.90;;;;;;4365013;32;20171;-67
2022/01/24 01:58:51;;;;;;;81.17;32.83;;;-2.90;99.90;;;;;;4364344;32;20167;-68
2022/01/24 02:01:25;;;;;;;91.70;33.50;;;-2.90;99.90;;;;;;4376305;32;20183;-68
2022/01/24 02:03:54;;;;;;;91.57;34.57;;;-2.90;99.90;;;;;;4377000;32;20173;-68
2022/01/24 02:06:24;;;;;;;91.10;34.53;;;-2.90;99.90;;;;;;4364765;32;20233;-67
2022/01/24 02:09:05;;;;;;;95.23;34.60;;;-2.90;99.90;;;;;;4364065;32;20228;-67
2022/01/24 02:11:41;;;;;;;91.00;34.70;;;-2.90;99.90;;;;;;4352163;32;20234;-68
2022/01/24 02:14:21;;;;;;;95.43;34.30;;;-2.90;99.90;;;;;;4377223;32;20172;-68
2022/01/24 02:17:04;;;;;;;83.77;32.87;;;-2.90;99.90;;;;;;4364305;32;20169;-68
2022/01/24 02:22:51;;;;;;;84.00;32.93;;;-2.90;99.90;;;;;;4415196;32;20519;-68
2022/01/24 02:25:34;;;;;;;87.57;32.73;;;-2.80;99.90;;;;;;4423020;32;20240;-68
2022/01/24 02:28:03;;;;;;;81.60;33.30;;;-2.80;99.90;;;;;;4424677;32;20339;-68
2022/01/24 02:33:09;;;;;;;84.20;33.60;;;-2.70;99.90;;;;;;4424143;32;20170;-68
2022/01/24 02:35:40;;;;;;;86.17;33.17;;;-2.80;99.90;;;;;;4423934;32;20203;-68
2022/01/24 02:49:20;;;;;;;58.20;23.20;;;-2.70;99.90;;;;;;4423649;32;20179;-68
2022/01/24 02:51:49;;;;;;;55.60;22.23;;;-2.80;99.90;;;;;;4422097;32;20259;-68
2022/01/24 02:55:10;;;;;;;48.53;20.30;;;-2.80;99.90;;;;;;4422445;32;20222;-68
2022/01/24 02:57:55;;;;;;;45.83;19.07;;;-2.80;99.90;;;;;;4394977;32;20187;-68
2022/01/24 03:00:28;;;;;;;46.60;19.33;;;-2.80;99.90;;;;;;4394309;32;20171;-68
2022/01/24 03:02:55;;;;;;;43.00;17.83;;;-2.70;99.90;;;;;;4406699;32;20178;-67
2022/01/24 03:05:37;;;;;;;42.90;18.03;;;-2.70;99.90;;;;;;4393615;32;20555;-68
2022/01/24 03:08:08;;;;;;;42.10;18.07;;;-2.70;99.90;;;;;;4393272;32;20186;-68
2022/01/24 03:10:40;;;;;;;41.53;17.87;;;-2.70;99.90;;;;;;4393509;32;20441;-68
2022/01/24 03:15:56;;;;;;;39.97;17.03;;;-2.50;99.90;;;;;;4393488;32;20544;-68
2022/01/24 03:18:30;;;;;;;38.00;16.70;;;-2.40;99.90;;;;;;4381052;32;20176;-68
2022/01/24 03:21:07;;;;;;;39.87;16.63;;;-2.60;99.90;;;;;;4406719;32;20189;-68
2022/01/24 03:23:39;;;;;;;37.40;15.90;;;-2.80;99.90;;;;;;4393186;32;20210;-68
2022/01/24 03:26:07;;;;;;;38.40;16.33;;;-2.90;99.90;;;;;;4393547;32;20599;-68
2022/01/24 03:28:34;;;;;;;36.00;16.87;;;-2.90;99.90;;;;;;4406286;32;20146;-68
2022/01/24 03:31:02;;;;;;;37.30;16.27;;;-2.90;99.90;;;;;;4406536;32;20444;-68
2022/01/24 03:33:32;;;;;;;37.37;17.00;;;-3.00;99.90;;;;;;4396438;32;20212;-68
2022/01/24 03:36:00;;;;;;;43.07;17.23;;;-2.90;99.90;;;;;;4423528;32;20216;-68
2022/01/24 03:38:27;;;;;;;40.77;16.70;;;-2.80;99.90;;;;;;4421691;32;20230;-68
2022/01/24 03:40:57;;;;;;;43.37;17.47;;;-2.70;99.90;;;;;;4422133;32;20249;-68
2022/01/24 03:43:25;;;;;;;41.10;16.93;;;-2.60;99.90;;;;;;4422498;32;20289;-68
2022/01/24 03:46:12;;;;;;;44.60;18.23;;;-2.50;99.90;;;;;;4422083;32;20520;-68
2022/01/24 03:48:45;;;;;;;47.77;19.77;;;-2.50;99.90;;;;;;4422563;32;20240;-68
2022/01/24 03:51:23;;;;;;;46.73;19.90;;;-2.60;99.90;;;;;;4425268;32;20196;-67
2022/01/24 03:53:51;;;;;;;46.13;19.93;;;-2.60;99.90;;;;;;4425429;32;20456;-67
2022/01/24 03:56:30;;;;;;;46.80;20.07;;;-2.60;99.90;;;;;;4424949;32;20207;-68
2022/01/24 03:58:59;;;;;;;43.77;19.47;;;-2.60;99.90;;;;;;4426489;32;20147;-68
2022/01/24 04:01:32;;;;;;;47.93;20.00;;;-2.70;99.90;;;;;;4425086;32;20179;-68
2022/01/24 04:04:05;;;;;;;48.57;18.97;;;-2.60;99.90;;;;;;4425224;32;20408;-68
2022/01/24 04:06:32;;;;;;;43.77;18.83;;;-2.80;99.90;;;;;;4425233;32;20228;-68
2022/01/24 04:09:08;;;;;;;45.40;18.97;;;-2.70;99.90;;;;;;4424773;32;20452;-68
2022/01/24 04:11:40;;;;;;;48.43;20.00;;;-2.70;99.90;;;;;;4425121;32;20225;-68
2022/01/24 04:14:26;;;;;;;50.37;20.07;;;-2.60;99.90;;;;;;4424765;32;20209;-68
2022/01/24 04:17:19;;;;;;;49.10;19.73;;;-2.60;99.90;;;;;;4427057;32;20155;-68
2022/01/24 04:22:47;;;;;;;;;;;;;;;;;;;;;
2022/01/24 04:25:17;;;;;;;48.23;20.03;;;-2.60;99.90;;;;;;4424773;32;20166;-68
2022/01/24 04:27:44;;;;;;;46.77;19.93;;;-2.60;99.90;;;;;;4424594;32;20183;-68
2022/01/24 04:30:15;;;;;;;45.93;19.20;;;-2.60;99.90;;;;;;4424641;32;20204;-68
2022/01/24 04:32:51;;;;;;;44.30;19.37;;;-2.50;99.90;;;;;;4424766;32;20194;-68
2022/01/24 04:35:19;;;;;;;51.20;20.87;;;-2.50;99.90;;;;;;4424505;32;20471;-67
2022/01/24 04:37:47;;;;;;;47.93;20.17;;;-2.50;99.90;;;;;;4423923;32;20191;-68
2022/01/24 04:40:26;;;;;;;48.50;20.80;;;-2.50;99.90;;;;;;4424321;32;20418;-67
2022/01/24 04:43:18;;;;;;;49.37;20.33;;;-2.50;99.90;;;;;;4424316;32;20218;-68
2022/01/24 04:46:11;;;;;;;49.93;20.03;;;-2.40;99.90;;;;;;4425755;32;20184;-68
2022/01/24 04:54:39;;;;;;;53.23;20.60;;;-2.50;99.90;;;;;;4424949;32;20253;-68
2022/01/24 04:57:17;;;;;;;51.00;20.97;;;-2.40;99.90;;;;;;4424375;32;20521;-68
2022/01/24 04:59:47;;;;;;;54.00;21.30;;;-2.40;99.90;;;;;;4423917;32;20238;-68
2022/01/24 05:02:20;;;;;;;49.50;19.97;;;-2.30;99.90;;;;;;4424192;32;20571;-68
2022/01/24 05:04:49;;;;;;;52.63;20.60;;;-2.30;99.90;;;;;;4424238;32;20612;-68
2022/01/24 05:07:20;;;;;;;51.77;19.87;;;-2.30;99.90;;;;;;4423924;32;20623;-68
2022/01/24 05:10:16;;;;;;;55.47;21.70;;;-2.30;99.90;;;;;;4425676;32;20227;-68
2022/01/24 05:23:47;;;;;;;51.03;19.90;;;-2.30;99.90;;;;;;4422107;32;20170;-68
2022/01/24 05:26:15;;;;;;;55.33;21.33;;;-2.30;99.90;;;;;;4423707;32;20190;-68
2022/01/24 05:28:45;;;;;;;48.63;20.60;;;-2.20;99.90;;;;;;4423771;32;20219;-68
2022/01/24 05:31:16;;;;;;;54.37;20.00;;;-2.20;99.90;;;;;;4424873;32;20436;-68
2022/01/24 05:33:56;;;;;;;53.17;20.63;;;-2.30;99.90;;;;;;4423757;32;20189;-68
2022/01/24 05:36:38;;;;;;;47.83;21.77;;;-2.40;99.90;;;;;;4425130;32;20640;-68
2022/01/24 05:39:05;;;;;;;52.50;20.60;;;-2.50;99.90;;;;;;4423595;32;20496;-67
2022/01/24 05:41:35;;;;;;;48.77;19.93;;;-2.50;99.90;;;;;;4423647;32;20167;-68
2022/01/24 05:44:25;;;;;;;51.17;20.27;;;-2.40;99.90;;;;;;4423444;32;20189;-68
2022/01/24 05:47:28;;;;;;;52.50;20.13;;;-2.40;99.90;;;;;;4425678;32;20453;-67
2022/01/24 05:49:56;;;;;;;47.73;19.87;;;-2.40;99.90;;;;;;4425022;32;20140;-68
2022/01/24 05:52:26;;;;;;;47.70;19.20;;;-2.40;99.90;;;;;;4423445;32;20234;-68
2022/01/24 05:55:00;;;;;;;46.50;19.57;;;-2.40;99.90;;;;;;4422711;32;20192;-68
2022/01/24 05:57:45;;;;;;;44.03;18.90;;;-2.40;99.90;;;;;;4424561;32;20183;-67
2022/01/24 06:00:17;;;;;;;49.30;19.47;;;-2.30;99.90;;;;;;4424494;32;20246;-68
2022/01/24 06:03:05;;;;;;;45.17;19.07;;;-2.30;99.90;;;;;;4363348;32;20199;-68
2022/01/24 06:05:33;;;;;;;46.97;19.10;;;-2.20;99.90;;;;;;4364695;32;20169;-67
2022/01/24 06:08:00;;;;;;;46.03;18.63;;;-2.20;99.90;;;;;;4363976;32;20259;-68
2022/01/24 06:10:30;;;;;;;45.03;18.97;;;-2.30;99.90;;;;;;4364086;32;20206;-68
2022/01/24 06:13:07;;;;;;;42.83;18.27;;;-2.20;99.90;;;;;;4363586;32;20188;-67
2022/01/24 06:15:57;;;;;;;47.13;18.50;;;-2.30;99.90;;;;;;4377151;32;20253;-68
2022/01/24 06:18:30;;;;;;;46.40;17.60;;;-2.30;99.90;;;;;;4363810;32;20168;-67
2022/01/24 06:20:58;;;;;;;43.67;18.63;;;-2.30;99.90;;;;;;4364436;32;20222;-68
2022/01/24 06:23:26;;;;;;;47.40;18.67;;;-2.40;99.90;;;;;;4376520;32;20179;-68
2022/01/24 06:25:54;;;;;;;47.63;19.90;;;-2.40;99.90;;;;;;4376691;32;20183;-68
2022/01/24 06:28:22;;;;;;;46.23;18.73;;;-2.30;99.90;;;;;;4352078;32;20490;-68
2022/01/24 06:30:49;;;;;;;47.47;19.87;;;-2.40;99.90;;;;;;4363609;32;20193;-67
2022/01/24 06:33:19;;;;;;;48.87;18.90;;;-2.50;99.90;;;;;;4363402;32;20203;-68
2022/01/24 06:35:50;;;;;;;44.87;19.63;;;-2.70;99.90;;;;;;4376484;32;20233;-68
2022/01/24 06:38:18;;;;;;;47.23;19.60;;;-2.70;99.90;;;;;;4351100;32;20230;-68
2022/01/24 06:41:08;;;;;;;41.57;18.53;;;-2.60;99.90;;;;;;4411852;32;20457;-68
2022/01/24 06:43:51;;;;;;;45.60;19.43;;;-2.60;99.90;;;;;;4422075;32;20170;-68
2022/01/24 06:46:30;;;;;;;42.53;18.47;;;-2.60;99.90;;;;;;4422145;32;20569;-68
2022/01/24 06:48:57;;;;;;;44.47;18.17;;;-2.50;99.90;;;;;;4421922;32;20235;-68
2022/01/24 06:51:34;;;;;;;45.00;18.27;;;-2.50;99.90;;;;;;4422133;32;20524;-68
2022/01/24 06:54:02;;;;;;;47.03;18.53;;;-2.60;99.90;;;;;;4361203;32;20144;-67
2022/01/24 06:56:29;;;;;;;48.50;18.83;;;-2.80;99.90;;;;;;4349561;33;20443;-68
2022/01/24 06:59:00;;;;;;;44.03;18.93;;;-2.90;99.90;;;;;;4361181;33;20492;-68
2022/01/24 07:01:28;;;;;;;45.20;19.40;;;-2.80;99.90;;;;;;4361904;32;20136;-68
2022/01/24 07:04:01;;;;;;;50.03;19.10;;;-2.80;99.90;;;;;;4348583;33;20187;-68
2022/01/24 07:06:35;;;;;;;48.43;19.13;;;-2.70;99.90;;;;;;4361481;32;20239;-67
2022/01/24 07:09:20;;;;;;;46.70;18.57;;;-2.70;99.90;;;;;;4348764;33;20234;-67
2022/01/24 07:11:50;;;;;;;44.93;19.07;;;-2.60;99.90;;;;;;4371738;32;20184;-68
2022/01/24 07:14:29;;;;;;;43.53;18.90;;;-2.60;99.90;;;;;;4423176;32;20368;-67
2022/01/24 07:17:59;;;;;;;43.67;18.10;;;-2.60;99.90;;;;;;4421163;32;20179;-67
2022/01/24 07:19:48;;;;;;;44.13;18.33;;;-2.60;99.90;;;;;;4404240;32;20456;-67
2022/01/24 07:22:19;;;;;;;47.13;19.33;;;-2.60;99.90;;;;;;4419642;32;20208;-68
2022/01/24 07:24:58;;;;;;;42.30;17.90;;;-2.60;99.90;;;;;;4406827;32;20164;-68
2022/01/24 07:27:27;;;;;;;41.97;17.43;;;-2.60;99.90;;;;;;4408216;32;20194;-67
2022/01/24 07:29:55;;;;;;;41.43;18.03;;;-2.50;99.90;;;;;;4406633;32;20172;-68
2022/01/24 07:32:22;;;;;;;42.53;18.53;;;-2.40;99.90;;;;;;4407150;32;20170;-68
2022/01/24 07:34:54;;;;;;;43.00;18.43;;;-2.40;99.90;;;;;;4407191;32;20189;-68
2022/01/24 07:37:28;;;;;;;44.60;19.13;;;-2.50;99.90;;;;;;4406794;32;20270;-68
2022/01/24 07:40:07;;;;;;;44.40;18.70;;;-2.40;99.90;;;;;;4407848;32;20157;-68
2022/01/24 07:43:26;;;;;;;46.07;18.77;;;-2.40;99.90;;;;;;4407958;32;20527;-68
2022/01/24 07:45:36;;;;;;;43.17;18.13;;;-2.30;99.90;;;;;;4401419;32;20515;-68
2022/01/24 07:48:10;;;;;;;39.77;18.50;;;-2.20;99.90;;;;;;4406313;32;20532;-68
2022/01/24 07:50:58;;;;;;;42.93;18.37;;;-2.20;99.90;;;;;;4408439;32;20197;-68
2022/01/24 07:53:31;;;;;;;44.33;18.33;;;-2.10;99.90;;;;;;4408108;32;20138;-67
2022/01/24 07:56:16;;;;;;;41.27;17.17;;;-2.00;99.90;;;;;;4419085;32;20375;-68
2022/01/24 07:59:02;;;;;;;42.97;18.20;;;-2.10;99.90;;;;;;4419366;32;20252;-68
2022/01/24 08:01:42;;;;;;;39.67;17.30;;;-2.10;99.90;;;;;;4407794;32;20143;-68
2022/01/24 08:04:10;;;;;;;43.97;18.63;;;-2.00;99.90;;;;;;4418313;32;20256;-67
2022/01/24 08:06:40;;;;;;;45.40;17.57;;;-2.00;99.90;;;;;;4419624;32;20174;-67
2022/01/24 08:09:10;;;;;;;43.33;18.40;;;-1.80;99.90;;;;;;4407977;32;20161;-68
2022/01/24 08:11:47;;;;;;;43.77;18.40;;;-1.70;99.90;;;;;;4406467;32;20558;-68
2022/01/24 08:14:16;;;;;;;43.20;18.20;;;-1.70;99.90;;;;;;4408031;32;20131;-67
2022/01/24 08:16:59;;;;;;;44.77;18.30;;;-1.60;99.90;;;;;;4408272;32;20136;-67
2022/01/24 08:19:27;;;;;;;49.07;19.70;;;-1.70;99.90;;;;;;4406582;32;20592;-68
2022/01/24 08:21:56;;;;;;;43.73;17.70;;;-1.70;99.90;;;;;;4406679;32;20155;-68
2022/01/24 08:24:31;;;;;;;47.97;19.30;;;-1.60;99.90;;;;;;4406470;32;20193;-68
2022/01/24 08:27:00;;;;;;;43.97;18.20;;;-1.50;99.90;;;;;;4407596;32;20158;-68
2022/01/24 08:29:46;;;;;;;42.20;18.37;;;-1.60;99.90;;;;;;4406513;32;20411;-68
2022/01/24 08:32:13;;;;;;;47.57;18.67;;;-1.60;99.90;;;;;;4406606;32;20175;-68
2022/01/24 08:34:44;;;;;;;41.33;19.23;;;-1.50;99.90;;;;;;4419277;32;20262;-68
2022/01/24 08:37:29;;;;;;;46.17;18.13;;;-1.60;99.90;;;;;;4410137;32;20162;-68
2022/01/24 08:40:08;;;;;;;43.83;18.17;;;-1.50;99.90;;;;;;4409723;32;20157;-67
2022/01/24 08:42:55;;;;;;;44.50;18.27;;;-1.40;99.90;;;;;;4409110;32;20282;-68
2022/01/24 08:48:22;;;;;;;46.67;18.67;;;-1.20;99.90;;;;;;4408892;32;20479;-67
2022/01/24 08:50:56;;;;;;;47.73;19.03;;;-1.00;99.90;;;;;;4409024;32;20256;-66
2022/01/24 08:53:34;;;;;;;43.17;18.30;;;-1.00;99.90;;;;;;4421552;32;20164;-67
2022/01/24 08:56:13;;;;;;;47.17;19.73;;;-1.00;99.90;;;;;;4409292;32;20163;-68
2022/01/24 08:58:55;;;;;;;44.80;19.07;;;-1.00;99.90;;;;;;4408945;32;20438;-67
2022/01/24 09:01:29;;;;;;;47.13;19.83;;;-1.00;99.90;;;;;;4410520;32;20127;-67
2022/01/24 09:03:59;;;;;;;42.03;18.80;;;-1.10;99.90;;;;;;4408938;32;20604;-67
2022/01/24 09:06:28;;;;;;;46.90;19.10;;;-1.10;99.90;;;;;;4423812;32;20197;-67
2022/01/24 09:09:01;;;;;;;50.13;19.80;;;-1.00;99.90;;;;;;4424424;32;20196;-67
2022/01/24 09:11:41;;;;;;;45.30;19.30;;;-1.10;99.90;;;;;;4423540;32;20588;-67
2022/01/24 09:14:09;;;;;;;45.40;19.20;;;-1.10;99.90;;;;;;4423572;32;20178;-67
2022/01/24 09:16:39;;;;;;;44.07;19.17;;;-1.00;99.90;;;;;;4425053;32;20221;-67
2022/01/24 09:19:16;;;;;;;49.10;19.37;;;-0.90;99.90;;;;;;4425029;32;20298;-67
2022/01/24 09:21:49;;;;;;;45.57;19.53;;;-0.80;99.90;;;;;;4425391;32;20384;-67
2022/01/24 09:24:17;;;;;;;48.63;20.43;;;-0.80;99.90;;;;;;4423320;32;20540;-68
2022/01/24 09:26:48;;;;;;;47.47;19.40;;;-0.90;99.90;;;;;;4421447;32;20246;-67
2022/01/24 09:29:16;;;;;;;44.83;19.27;;;-0.80;99.90;;;;;;4424851;32;20147;-67
2022/01/24 09:31:46;;;;;;;51.17;19.60;;;-0.70;99.90;;;;;;4424621;32;20197;-67
2022/01/24 09:34:20;;;;;;;49.33;18.97;;;-0.60;99.90;;;;;;4423250;32;20232;-67
2022/01/24 09:36:51;;;;;;;45.67;19.13;;;-0.50;99.90;;;;;;4425380;32;20187;-67
2022/01/24 09:39:19;;;;;;;46.60;19.43;;;-0.60;99.90;;;;;;4423213;32;20167;-67
2022/01/24 09:41:51;;;;;;;40.73;18.27;;;-0.60;99.90;;;;;;4423568;32;20189;-67
2022/01/24 09:44:44;;;;;;;45.80;19.17;;;-0.70;99.90;;;;;;4421225;32;20305;-67
2022/01/24 09:47:16;;;;;;;44.87;18.43;;;-0.70;99.90;;;;;;4420511;32;20253;-67
2022/01/24 09:49:53;;;;;;;48.10;18.07;;;-0.60;99.90;;;;;;4423943;32;20181;-67
2022/01/24 09:52:31;;;;;;;44.63;18.50;;;-0.40;99.90;;;;;;4410848;32;20209;-67
2022/01/24 09:55:12;;;;;;;45.97;18.33;;;-0.40;99.90;;;;;;4410368;32;20497;-68
2022/01/24 09:57:47;;;;;;;47.03;17.63;;;-0.30;99.90;;;;;;4424457;32;20146;-67
2022/01/24 10:00:19;;;;;;;42.10;18.60;;;-0.30;99.90;;;;;;4424843;32;20193;-68
2022/01/24 10:03:03;;;;;;;45.23;17.30;;;-0.20;99.90;;;;;;4424483;32;20130;-67
2022/01/24 10:05:54;;;;;;;44.87;17.93;;;-0.20;99.90;;;;;;4423315;32;20179;-68
2022/01/24 10:08:35;;;;;;;44.80;18.27;;;-0.20;99.90;;;;;;4424629;32;20138;-69
2022/01/24 10:11:06;;;;;;;39.43;17.43;;;-0.20;99.90;;;;;;4422488;32;20183;-69
2022/01/24 10:16:36;;;;;;;44.17;17.80;;;-0.30;99.90;;;;;;4425493;32;20234;-68
2022/01/24 10:19:16;;;;;;;46.93;18.00;;;-0.50;99.90;;;;;;4419831;32;20216;-68
2022/01/24 10:22:16;;;;;;;44.30;17.97;;;-0.40;99.90;;;;;;4422090;32;20175;-68
2022/01/24 10:24:53;;;;;;;42.33;17.77;;;-0.30;99.90;;;;;;4421496;32;20163;-68
2022/01/24 10:27:25;;;;;;;43.80;17.17;;;-0.10;99.90;;;;;;4422352;32;20245;-67
2022/01/24 10:30:27;;;;;;;42.50;18.00;;;0.00;99.90;;;;;;4422293;32;20550;-68
2022/01/24 10:32:56;;;;;;;39.63;16.47;;;0.10;99.90;;;;;;4420160;32;20193;-68
2022/01/24 10:35:26;;;;;;;37.57;16.10;;;-0.10;99.90;;;;;;4423361;32;20182;-68
2022/01/24 10:38:33;;;;;;;39.93;16.23;;;-0.20;99.90;;;;;;4421732;32;20513;-69
2022/01/24 10:43:52;;;;;;;33.57;14.57;;;-0.30;99.90;;;;;;4348038;33;20471;-67
2022/01/24 10:46:26;;;;;;;38.97;15.63;;;-0.30;99.90;;;;;;4361541;32;20176;-68
2022/01/24 10:49:07;;;;;;;38.30;14.80;;;-0.20;99.90;;;;;;4375245;32;20533;-67
2022/01/24 10:51:40;;;;;;;35.83;14.77;;;-0.30;99.90;;;;;;4376729;32;20261;-67
2022/01/24 10:54:14;;;;;;;30.93;14.43;;;-0.40;99.90;;;;;;4375592;32;20311;-68
2022/01/24 10:56:48;;;;;;;41.47;15.33;;;-0.40;99.90;;;;;;4363125;32;20197;-68
2022/01/24 10:59:21;;;;;;;37.57;15.10;;;-0.40;99.90;;;;;;4363020;32;20171;-67
2022/01/24 11:01:55;;;;;;;40.23;15.33;;;-0.30;99.90;;;;;;4362531;32;20248;-67
2022/01/24 11:04:33;;;;;;;35.40;14.70;;;-0.20;99.90;;;;;;4375329;32;20513;-68
2022/01/24 11:07:22;;;;;;;35.37;15.17;;;0.00;99.90;;;;;;4363323;32;20175;-67
2022/01/24 11:09:50;;;;;;;33.83;14.97;;;-0.20;99.90;;;;;;4362824;32;20276;-68
2022/01/24 11:12:24;;;;;;;36.20;15.87;;;0.00;99.90;;;;;;4363285;32;20251;-67
2022/01/24 11:15:01;;;;;;;38.73;15.20;;;0.10;99.90;;;;;;4363258;32;20506;-68
2022/01/24 11:17:33;;;;;;;34.37;15.00;;;0.00;99.90;;;;;;4381421;32;20189;-68
2022/01/24 11:20:11;;;;;;;32.73;15.27;;;-0.10;99.90;;;;;;4423177;32;20163;-68
2022/01/24 11:22:59;;;;;;;32.53;14.57;;;-0.10;99.90;;;;;;4422268;32;20423;-68
2022/01/24 11:25:40;;;;;;;34.43;15.20;;;-0.10;99.90;;;;;;4422192;32;20474;-67
2022/01/24 11:28:13;;;;;;;34.40;15.43;;;-0.10;99.90;;;;;;4421742;32;20533;-68
2022/01/24 11:31:22;;;;;;;33.33;14.20;;;0.10;99.90;;;;;;4421824;32;20198;-67
2022/01/24 11:34:20;;;;;;;38.07;15.57;;;0.10;99.90;;;;;;4421400;32;20185;-67
2022/01/24 11:36:52;;;;;;;36.67;16.23;;;0.10;99.90;;;;;;4422460;32;20568;-68
2022/01/24 11:39:25;;;;;;;35.87;15.70;;;0.00;99.90;;;;;;4422942;32;20430;-67
2022/01/24 11:42:11;;;;;;;35.63;15.37;;;0.20;99.90;;;;;;4422378;32;20456;-67
2022/01/24 11:45:04;;;;;;;36.40;15.80;;;0.20;99.90;;;;;;4421585;32;20237;-68
2022/01/24 11:47:32;;;;;;;36.87;14.97;;;0.30;99.90;;;;;;4422884;32;20158;-66
2022/01/24 11:50:19;;;;;;;41.03;15.47;;;0.30;99.90;;;;;;4421371;32;20226;-67
2022/01/24 11:52:56;;;;;;;36.30;14.87;;;0.50;99.90;;;;;;4422498;32;20174;-67
2022/01/24 11:55:38;;;;;;;35.93;15.20;;;0.60;99.90;;;;;;4421828;32;20232;-67
2022/01/24 11:58:08;;;;;;;34.43;14.80;;;0.40;99.90;;;;;;4421406;32;20239;-67
2022/01/24 12:00:44;;;;;;;38.07;15.47;;;0.50;99.90;;;;;;4422081;32;20544;-67
2022/01/24 12:03:23;;;;;;;35.20;15.37;;;0.60;99.90;;;;;;4421207;32;20197;-68
2022/01/24 12:05:53;;;;;;;37.53;14.97;;;0.70;99.90;;;;;;4421851;32;20229;-68
2022/01/24 12:08:46;;;;;;;35.33;15.37;;;0.80;99.90;;;;;;4421620;32;20218;-67
2022/01/24 12:11:31;;;;;;;37.37;15.33;;;0.70;99.90;;;;;;4423815;32;20175;-68
2022/01/24 12:14:32;;;;;;;36.13;14.67;;;0.80;99.90;;;;;;4424598;32;20196;-67
2022/01/24 12:17:04;;;;;;;32.23;14.13;;;0.60;99.90;;;;;;4424361;32;20211;-68
2022/01/24 12:19:35;;;;;;;34.83;13.80;;;0.60;99.90;;;;;;4425651;32;20155;-67
2022/01/24 12:22:36;;;;;;;31.70;14.67;;;0.60;99.90;;;;;;4424968;32;20210;-67
2022/01/24 12:25:04;;;;;;;33.27;14.53;;;0.60;99.90;;;;;;4412029;32;20171;-68
2022/01/24 12:27:35;;;;;;;34.53;15.20;;;0.60;99.90;;;;;;4411872;32;20246;-68
2022/01/24 12:30:09;;;;;;;33.47;14.20;;;0.60;99.90;;;;;;4424428;32;20171;-68
2022/01/24 12:32:50;;;;;;;32.77;14.07;;;0.70;99.90;;;;;;4425157;32;20204;-67
2022/01/24 12:35:28;;;;;;;33.10;14.37;;;0.80;99.90;;;;;;4425503;32;20447;-68
2022/01/24 12:38:16;;;;;;;40.13;15.27;;;0.70;99.90;;;;;;4425699;32;20499;-68
2022/01/24 12:41:34;;;;;;;32.70;14.60;;;0.70;99.90;;;;;;4423721;32;20175;-68
2022/01/24 12:46:35;;;;;;;31.77;13.87;;;0.70;99.90;;;;;;4408548;32;20166;-68
2022/01/24 12:49:08;;;;;;;32.63;14.03;;;0.70;99.90;;;;;;4408912;32;20182;-69
2022/01/24 12:51:37;;;;;;;34.50;14.60;;;0.80;99.90;;;;;;4410081;32;20179;-68
2022/01/24 12:54:46;;;;;;;32.20;14.43;;;0.90;99.90;;;;;;4410045;32;20163;-69
2022/01/24 12:57:32;;;;;;;28.77;13.47;;;1.00;99.90;;;;;;4403204;32;20202;-67
2022/01/24 13:00:20;;;;;;;33.17;13.83;;;1.10;99.90;;;;;;4409992;32;20212;-66
2022/01/24 13:03:55;;;;;;;31.23;13.87;;;0.90;99.90;;;;;;4409123;32;20198;-67
2022/01/24 13:07:10;;;;;;;28.00;13.77;;;0.80;99.90;;;;;;4420937;32;20171;-68
2022/01/24 13:09:38;;;;;;;31.67;14.60;;;0.80;99.90;;;;;;4408023;32;20206;-66
2022/01/24 13:12:30;;;;;;;33.03;14.33;;;0.90;99.90;;;;;;4408909;32;20171;-66
2022/01/24 13:21:27;;;;;;;31.50;14.57;;;0.70;99.90;;;;;;4411945;32;20208;-68
2022/01/24 13:24:05;;;;;;;34.73;14.50;;;0.80;99.90;;;;;;4421116;32;20169;-67
2022/01/24 13:27:02;;;;;;;29.83;13.97;;;0.70;99.90;;;;;;4424032;32;20540;-66
2022/01/24 13:30:00;;;;;;;30.33;14.60;;;0.60;99.90;;;;;;4423562;32;20201;-67
2022/01/24 13:32:52;;;;;;;33.00;13.83;;;0.50;99.90;;;;;;4392492;32;20564;-67
2022/01/24 13:35:33;;;;;;;30.77;14.27;;;0.40;99.90;;;;;;4395061;32;20594;-66
2022/01/24 13:38:03;;;;;;;31.27;14.13;;;0.30;99.90;;;;;;4408492;32;20387;-66
2022/01/24 13:41:04;;;;;;;33.63;14.67;;;0.20;99.90;;;;;;4407042;32;20143;-66
2022/01/24 13:44:02;;;;;;;33.53;14.30;;;0.20;99.90;;;;;;4395294;32;20159;-66
2022/01/24 13:46:35;;;;;;;30.37;13.67;;;0.20;99.90;;;;;;4394487;32;20205;-66
2022/01/24 13:49:25;;;;;;;33.77;14.13;;;0.30;99.90;;;;;;4393765;32;20191;-66
2022/01/24 13:52:12;;;;;;;30.80;13.83;;;0.20;99.90;;;;;;4387411;32;20182;-67
2022/01/24 13:54:43;;;;;;;34.23;15.13;;;0.20;99.90;;;;;;4394036;32;20193;-66
2022/01/24 13:57:28;;;;;;;32.63;14.17;;;0.20;99.90;;;;;;4406834;32;20158;-66
2022/01/24 14:00:08;;;;;;;32.20;14.37;;;0.20;99.90;;;;;;4407978;32;20147;-66
2022/01/24 14:03:04;;;;;;;35.70;15.03;;;0.20;99.90;;;;;;4393652;32;20240;-67
2022/01/24 14:06:21;;;;;;;33.80;13.97;;;0.20;99.90;;;;;;4393818;32;20320;-66
2022/01/24 14:09:17;;;;;;;33.13;14.80;;;0.20;99.90;;;;;;4392848;32;20178;-66
2022/01/24 14:11:48;;;;;;;35.57;15.00;;;0.30;99.90;;;;;;4406879;32;20175;-66
2022/01/24 14:14:19;;;;;;;31.47;14.30;;;0.20;99.90;;;;;;4407054;32;20175;-67
2022/01/24 14:17:06;;;;;;;33.47;14.77;;;0.20;99.90;;;;;;4408549;32;20139;-67
2022/01/24 14:19:35;;;;;;;35.93;14.60;;;0.10;99.90;;;;;;4407605;32;20188;-66
2022/01/24 14:22:21;;;;;;;31.13;14.27;;;0.10;99.90;;;;;;4408079;32;20513;-66
2022/01/24 14:24:56;;;;;;;32.60;14.17;;;0.00;99.90;;;;;;4407849;32;20193;-66
2022/01/24 14:27:51;;;;;;;33.90;14.90;;;0.00;99.90;;;;;;4407128;32;20178;-66
2022/01/24 14:30:41;;;;;;;33.83;14.73;;;0.10;99.90;;;;;;4407566;32;20432;-66
2022/01/24 14:33:14;;;;;;;35.13;14.77;;;0.10;99.90;;;;;;4406264;32;20411;-67
2022/01/24 14:36:13;;;;;;;37.97;15.50;;;0.00;99.90;;;;;;4395332;32;20530;-66
2022/01/24 14:38:59;;;;;;;34.83;15.27;;;-0.10;99.90;;;;;;4407317;32;20167;-66
2022/01/24 14:41:32;;;;;;;31.27;14.03;;;0.00;99.90;;;;;;4407220;32;20223;-65
2022/01/24 14:46:57;;;;;;;30.33;14.83;;;-0.10;99.90;;;;;;4393347;32;20497;-66
2022/01/24 14:49:32;;;;;;;35.30;14.80;;;-0.10;99.90;;;;;;4391948;32;20176;-66
2022/01/24 14:59:24;;;;;;;29.93;13.70;;;-0.20;99.90;;;;;;4356762;32;20267;-67
2022/01/24 15:03:01;;;;;;;;;;;;;;;;;;;;;
2022/01/24 15:10:42;;;;;;;35.30;14.60;;;-0.10;99.90;;;;;;4273263;33;20163;-67
2022/01/24 15:37:02;;;;;;;34.90;15.47;;;-0.20;99.90;;;;;;5309825;27;20200;-66
2022/01/24 15:40:07;;;;;;;37.50;15.33;;;-0.20;99.90;;;;;;5314404;27;20201;-67
2022/01/24 15:47:44;;;;;;;32.93;16.17;;;-0.20;99.90;;;;;;5312555;27;20155;-66
2022/01/24 15:50:16;;;;;;;36.17;15.40;;;-0.10;99.90;;;;;;5313799;27;20457;-67
2022/01/24 15:53:16;;;;;;;35.60;15.37;;;-0.20;99.90;;;;;;5314080;27;20124;-66
2022/01/24 15:59:04;;;;;;;41.70;15.60;;;-0.10;99.90;;;;;;5245765;27;20172;-66
2022/01/24 16:02:02;;;;;;;30.70;14.80;;;-0.10;99.90;;;;;;5226879;27;20635;-66